createdAt,value
2019-03-25T00:00:55.554Z,0.00
2019-03-25T00:01:56.003Z,0.00
2019-03-25T00:02:56.476Z,0.00
2019-03-25T00:03:56.922Z,0.00
2019-03-25T00:04:57.361Z,0.00
2019-03-25T00:05:57.796Z,0.00
2019-03-25T00:06:58.274Z,0.00
2019-03-25T00:07:58.713Z,0.00
2019-03-25T00:09:05.365Z,0.00
2019-03-25T00:10:05.580Z,0.00
2019-03-25T00:11:06.083Z,0.00
2019-03-25T00:12:06.535Z,0.00
2019-03-25T00:13:07.125Z,0.00
2019-03-25T00:14:07.567Z,0.00
2019-03-25T00:15:08.125Z,0.00
2019-03-25T00:16:08.576Z,0.00
2019-03-25T00:17:10.086Z,0.00
2019-03-25T00:18:10.522Z,0.00
2019-03-25T00:19:11.081Z,0.00
2019-03-25T00:20:11.517Z,0.00
2019-03-25T00:21:11.996Z,0.00
2019-03-25T00:22:12.442Z,0.00
2019-03-25T00:23:13.917Z,0.00
2019-03-25T00:24:14.361Z,0.00
2019-03-25T00:25:14.921Z,0.00
2019-03-25T00:26:15.426Z,0.00
2019-03-25T00:27:15.885Z,0.00
2019-03-25T00:28:16.337Z,0.00
2019-03-25T00:29:16.827Z,0.00
2019-03-25T00:30:17.267Z,0.00
2019-03-25T00:31:17.805Z,0.00
2019-03-25T00:32:18.264Z,0.00
2019-03-25T00:33:18.797Z,0.00
2019-03-25T00:34:19.235Z,0.00
2019-03-25T00:35:19.733Z,0.00
2019-03-25T00:36:20.207Z,0.00
2019-03-25T00:37:20.671Z,0.00
2019-03-25T00:38:21.114Z,0.00
2019-03-25T00:39:21.603Z,0.00
2019-03-25T00:40:22.109Z,0.00
2019-03-25T00:41:22.683Z,0.00
2019-03-25T00:42:23.155Z,0.00
2019-03-25T00:43:23.679Z,0.00
2019-03-25T00:44:24.122Z,0.00
2019-03-25T00:45:24.615Z,0.00
2019-03-25T00:46:25.080Z,0.00
2019-03-25T00:47:25.547Z,0.00
2019-03-25T00:48:25.986Z,0.00
2019-03-25T00:49:27.509Z,0.00
2019-03-25T00:50:27.945Z,0.00
2019-03-25T00:51:28.428Z,0.00
2019-03-25T00:52:28.864Z,0.00
2019-03-25T00:53:29.331Z,0.00
2019-03-25T00:54:29.772Z,0.00
2019-03-25T00:55:30.264Z,0.00
2019-03-25T00:56:30.720Z,0.00
2019-03-25T00:57:31.199Z,0.00
2019-03-25T00:58:31.644Z,0.00
2019-03-25T00:59:32.135Z,0.00
2019-03-25T01:00:32.581Z,0.00
2019-03-25T01:01:33.139Z,0.00
2019-03-25T01:02:33.574Z,0.00
2019-03-25T01:03:34.108Z,0.00
2019-03-25T01:04:34.549Z,0.00
2019-03-25T01:05:35.044Z,0.00
2019-03-25T01:06:35.506Z,0.00
2019-03-25T01:07:38.031Z,0.00
2019-03-25T01:08:38.540Z,0.00
2019-03-25T01:09:40.088Z,0.00
2019-03-25T01:10:40.523Z,0.00
2019-03-25T01:11:49.061Z,0.00
2019-03-25T01:12:47.472Z,0.00
2019-03-25T01:13:49.943Z,0.00
2019-03-25T01:14:50.399Z,0.00
2019-03-25T01:15:50.913Z,0.00
2019-03-25T01:16:51.387Z,0.00
2019-03-25T01:17:51.950Z,0.00
2019-03-25T01:18:52.390Z,0.00
2019-03-25T01:19:53.906Z,0.00
2019-03-25T01:20:54.357Z,0.00
2019-03-25T01:21:54.873Z,0.00
2019-03-25T01:22:55.319Z,0.00
2019-03-25T01:23:55.872Z,0.00
2019-03-25T01:25:02.575Z,0.00
2019-03-25T01:26:03.367Z,0.00
2019-03-25T01:27:03.824Z,0.00
2019-03-25T01:28:04.301Z,0.00
2019-03-25T01:29:04.739Z,0.00
2019-03-25T01:30:05.244Z,0.00
2019-03-25T01:31:05.683Z,0.00
2019-03-25T01:32:06.211Z,0.00
2019-03-25T01:33:06.663Z,0.00
2019-03-25T01:34:07.205Z,0.00
2019-03-25T01:35:07.715Z,0.00
2019-03-25T01:36:08.248Z,0.00
2019-03-25T01:37:08.705Z,0.00
2019-03-25T01:38:09.182Z,0.00
2019-03-25T01:39:09.632Z,0.00
2019-03-25T01:40:10.113Z,0.00
2019-03-25T01:41:10.551Z,0.00
2019-03-25T01:42:11.768Z,0.00
2019-03-25T01:43:12.295Z,0.00
2019-03-25T01:44:12.910Z,0.00
2019-03-25T01:45:13.352Z,0.00
2019-03-25T01:46:13.844Z,0.00
2019-03-25T01:47:14.323Z,0.00
2019-03-25T01:48:15.101Z,0.00
2019-03-25T01:49:15.534Z,0.00
2019-03-25T01:50:15.974Z,0.00
2019-03-25T01:51:16.417Z,0.00
2019-03-25T01:52:16.866Z,0.00
2019-03-25T01:53:17.302Z,0.00
2019-03-25T01:54:17.774Z,0.00
2019-03-25T01:55:18.214Z,0.00
2019-03-25T01:56:18.650Z,0.00
2019-03-25T01:57:19.100Z,0.00
2019-03-25T01:58:19.649Z,0.00
2019-03-25T01:59:20.104Z,0.00
2019-03-25T02:00:20.583Z,0.00
2019-03-25T02:01:21.033Z,0.00
2019-03-25T02:02:21.472Z,0.00
2019-03-25T02:03:21.905Z,0.00
2019-03-25T02:04:22.346Z,0.00
2019-03-25T02:05:22.781Z,0.00
2019-03-25T02:06:23.312Z,0.00
2019-03-25T02:07:23.771Z,0.00
2019-03-25T02:08:24.319Z,0.00
2019-03-25T02:09:24.768Z,0.00
2019-03-25T02:10:25.208Z,0.00
2019-03-25T02:11:25.666Z,0.00
2019-03-25T02:12:26.115Z,0.00
2019-03-25T02:13:26.562Z,0.00
2019-03-25T02:14:27.004Z,0.00
2019-03-25T02:15:27.441Z,0.00
2019-03-25T02:16:27.989Z,0.00
2019-03-25T02:17:28.428Z,0.00
2019-03-25T02:18:28.879Z,0.00
2019-03-25T02:19:29.329Z,0.00
2019-03-25T02:20:29.766Z,0.00
2019-03-25T02:21:30.216Z,0.00
2019-03-25T02:22:30.755Z,0.00
2019-03-25T02:23:31.260Z,0.00
2019-03-25T02:24:31.700Z,0.00
2019-03-25T02:25:32.148Z,0.00
2019-03-25T02:26:32.603Z,0.00
2019-03-25T02:27:33.041Z,0.00
2019-03-25T02:28:33.482Z,0.00
2019-03-25T02:29:33.924Z,0.00
2019-03-25T02:30:34.367Z,0.00
2019-03-25T02:31:34.820Z,0.00
2019-03-25T02:32:35.265Z,0.00
2019-03-25T02:33:35.709Z,0.00
2019-03-25T02:34:36.156Z,0.00
2019-03-25T02:35:36.612Z,0.00
2019-03-25T02:36:37.090Z,0.00
2019-03-25T02:37:37.538Z,0.00
2019-03-25T02:38:37.991Z,0.00
2019-03-25T02:39:38.439Z,0.00
2019-03-25T02:40:38.893Z,0.00
2019-03-25T02:41:39.360Z,0.00
2019-03-25T02:42:39.815Z,0.00
2019-03-25T02:43:40.261Z,0.00
2019-03-25T02:44:40.708Z,0.00
2019-03-25T02:45:41.149Z,0.00
2019-03-25T02:46:41.612Z,0.00
2019-03-25T02:47:42.069Z,0.00
2019-03-25T02:48:42.610Z,0.00
2019-03-25T02:49:43.074Z,0.00
2019-03-25T02:50:43.537Z,0.00
2019-03-25T02:51:44.020Z,0.00
2019-03-25T02:52:44.471Z,0.00
2019-03-25T02:53:44.944Z,0.00
2019-03-25T02:54:45.466Z,0.00
2019-03-25T02:55:45.917Z,0.00
2019-03-25T02:56:46.387Z,0.00
2019-03-25T02:57:46.832Z,0.00
2019-03-25T02:58:47.278Z,0.00
2019-03-25T02:59:47.717Z,0.00
2019-03-25T03:00:48.165Z,0.00
2019-03-25T03:01:48.673Z,0.00
2019-03-25T03:02:49.114Z,0.00
2019-03-25T03:03:49.681Z,0.00
2019-03-25T03:04:50.121Z,0.00
2019-03-25T03:05:50.615Z,0.00
2019-03-25T03:06:51.126Z,0.00
2019-03-25T03:07:51.656Z,0.00
2019-03-25T03:08:52.097Z,0.00
2019-03-25T03:09:52.591Z,0.00
2019-03-25T03:10:53.034Z,0.00
2019-03-25T03:11:55.616Z,0.00
2019-03-25T03:12:56.059Z,0.00
2019-03-25T03:13:56.611Z,0.00
2019-03-25T03:14:57.063Z,0.00
2019-03-25T03:15:57.545Z,0.00
2019-03-25T03:16:58.035Z,0.00
2019-03-25T03:18:14.456Z,0.00
2019-03-25T03:19:30.823Z,0.00
2019-03-25T03:20:32.808Z,0.00
2019-03-25T03:21:33.286Z,0.00
2019-03-25T03:22:33.852Z,0.00
2019-03-25T03:23:34.312Z,0.00
2019-03-25T03:24:36.932Z,0.00
2019-03-25T03:25:37.382Z,0.00
2019-03-25T03:26:37.896Z,0.00
2019-03-25T03:27:38.345Z,0.00
2019-03-25T03:28:39.206Z,0.00
2019-03-25T03:29:39.669Z,0.00
2019-03-25T03:30:40.141Z,0.00
2019-03-25T03:31:40.657Z,0.00
2019-03-25T03:32:41.200Z,0.00
2019-03-25T03:33:41.671Z,0.00
2019-03-25T03:34:42.419Z,0.00
2019-03-25T03:35:46.243Z,0.00
2019-03-25T03:36:47.074Z,0.00
2019-03-25T03:37:47.524Z,0.00
2019-03-25T03:38:50.029Z,0.00
2019-03-25T03:39:50.485Z,0.00
2019-03-25T03:41:00.064Z,0.00
2019-03-25T03:42:00.594Z,0.00
2019-03-25T03:43:01.068Z,0.00
2019-03-25T03:44:01.517Z,0.00
2019-03-25T03:45:01.974Z,0.00
2019-03-25T03:46:02.418Z,0.00
2019-03-25T03:47:02.875Z,0.00
2019-03-25T03:48:03.325Z,0.00
2019-03-25T03:49:03.770Z,0.00
2019-03-25T03:50:04.281Z,0.00
2019-03-25T03:51:05.552Z,0.00
2019-03-25T03:52:06.095Z,0.00
2019-03-25T03:53:06.541Z,0.00
2019-03-25T03:54:07.016Z,0.00
2019-03-25T03:55:08.236Z,0.00
2019-03-25T03:56:13.766Z,0.00
2019-03-25T03:57:15.108Z,0.00
2019-03-25T03:58:15.555Z,0.00
2019-03-25T03:59:16.037Z,0.00
2019-03-25T04:00:16.491Z,0.00
2019-03-25T04:01:16.929Z,0.00
2019-03-25T04:02:17.397Z,0.00
2019-03-25T04:03:18.902Z,0.00
2019-03-25T04:04:19.467Z,0.00
2019-03-25T04:05:19.938Z,0.00
2019-03-25T04:06:20.379Z,0.00
2019-03-25T04:07:26.138Z,0.00
2019-03-25T04:08:26.587Z,0.00
2019-03-25T04:09:27.035Z,0.00
2019-03-25T04:10:27.472Z,0.00
2019-03-25T04:11:27.921Z,0.00
2019-03-25T04:12:30.461Z,0.00
2019-03-25T04:13:30.918Z,0.00
2019-03-25T04:14:31.374Z,0.00
2019-03-25T04:15:31.829Z,0.00
2019-03-25T04:16:32.279Z,0.00
2019-03-25T04:17:32.743Z,0.00
2019-03-25T04:18:33.219Z,0.00
2019-03-25T04:19:33.673Z,0.00
2019-03-25T04:20:34.278Z,0.00
2019-03-25T04:21:34.756Z,0.00
2019-03-25T04:22:35.217Z,0.00
2019-03-25T04:23:35.905Z,0.00
2019-03-25T04:24:37.374Z,0.00
2019-03-25T04:25:37.812Z,0.00
2019-03-25T04:26:40.376Z,0.00
2019-03-25T04:27:40.831Z,0.00
2019-03-25T04:28:42.320Z,0.00
2019-03-25T04:29:42.760Z,0.00
2019-03-25T04:30:44.283Z,0.00
2019-03-25T04:31:44.727Z,0.00
2019-03-25T04:32:46.311Z,0.00
2019-03-25T04:33:46.754Z,0.00
2019-03-25T04:34:47.271Z,0.00
2019-03-25T04:35:47.704Z,0.00
2019-03-25T04:36:48.177Z,0.00
2019-03-25T04:37:48.644Z,0.00
2019-03-25T04:38:49.146Z,0.00
2019-03-25T04:39:49.581Z,0.00
2019-03-25T04:40:52.135Z,0.00
2019-03-25T04:41:52.613Z,0.00
2019-03-25T04:42:53.058Z,0.00
2019-03-25T04:43:54.729Z,0.00
2019-03-25T04:44:55.173Z,0.00
2019-03-25T04:45:56.667Z,0.00
2019-03-25T04:46:57.122Z,0.00
2019-03-25T04:48:06.535Z,0.00
2019-03-25T04:49:07.008Z,0.00
2019-03-25T04:50:08.574Z,0.00
2019-03-25T04:51:09.022Z,0.00
2019-03-25T04:52:09.681Z,0.00
2019-03-25T04:53:10.136Z,0.00
2019-03-25T04:54:11.660Z,0.00
2019-03-25T04:55:12.095Z,0.00
2019-03-25T04:56:12.607Z,0.00
2019-03-25T04:57:13.063Z,4.00
2019-03-25T04:58:13.510Z,0.00
2019-03-25T04:59:14.019Z,0.00
2019-03-25T05:00:15.464Z,4.00
2019-03-25T05:01:15.905Z,4.00
2019-03-25T05:02:16.369Z,4.00
2019-03-25T05:03:16.822Z,8.00
2019-03-25T05:04:19.269Z,4.00
2019-03-25T05:05:19.711Z,4.00
2019-03-25T05:06:20.173Z,8.00
2019-03-25T05:07:20.628Z,12.00
2019-03-25T05:08:21.084Z,8.00
2019-03-25T05:09:21.535Z,12.00
2019-03-25T05:10:23.079Z,16.00
2019-03-25T05:11:30.567Z,16.00
2019-03-25T05:12:30.022Z,20.00
2019-03-25T05:13:31.569Z,24.00
2019-03-25T05:14:32.005Z,28.00
2019-03-25T05:15:32.450Z,36.00
2019-03-25T05:16:32.891Z,36.00
2019-03-25T05:17:33.491Z,40.00
2019-03-25T05:18:33.944Z,48.00
2019-03-25T05:20:01.917Z,56.00
2019-03-25T05:21:02.357Z,64.00
2019-03-25T05:22:02.808Z,72.00
2019-03-25T05:23:03.293Z,80.00
2019-03-25T05:24:03.738Z,88.00
2019-03-25T05:25:04.182Z,96.00
2019-03-25T05:26:04.630Z,108.00
2019-03-25T05:27:05.093Z,120.00
2019-03-25T05:28:05.647Z,128.00
2019-03-25T05:29:06.199Z,140.00
2019-03-25T05:30:13.466Z,152.00
2019-03-25T05:31:13.912Z,172.00
2019-03-25T05:32:15.438Z,196.00
2019-03-25T05:33:15.885Z,208.00
2019-03-25T05:34:16.339Z,228.00
2019-03-25T05:35:16.775Z,236.00
2019-03-25T05:36:17.268Z,236.00
2019-03-25T05:37:17.725Z,244.00
2019-03-25T05:38:18.202Z,264.00
2019-03-25T05:39:18.644Z,268.00
2019-03-25T05:40:19.140Z,304.00
2019-03-25T05:41:19.596Z,340.00
2019-03-25T05:42:20.056Z,316.00
2019-03-25T05:43:21.245Z,304.00
2019-03-25T05:44:21.922Z,308.00
2019-03-25T05:45:22.374Z,368.00
2019-03-25T05:46:22.821Z,380.00
2019-03-25T05:47:23.281Z,368.00
2019-03-25T05:48:23.718Z,380.00
2019-03-25T05:49:24.162Z,396.00
2019-03-25T05:50:33.440Z,448.00
2019-03-25T05:51:33.887Z,424.00
2019-03-25T05:52:34.354Z,404.00
2019-03-25T05:53:34.820Z,388.00
2019-03-25T05:54:35.268Z,396.00
2019-03-25T05:55:36.745Z,448.00
2019-03-25T05:56:37.220Z,468.00
2019-03-25T05:57:38.741Z,456.00
2019-03-25T05:58:39.184Z,432.00
2019-03-25T05:59:40.786Z,388.00
2019-03-25T06:00:41.248Z,400.00
2019-03-25T06:01:44.052Z,340.00
2019-03-25T06:02:44.835Z,292.00
2019-03-25T06:05:02.402Z,200.00
2019-03-25T06:07:19.253Z,404.00
2019-03-25T06:08:19.735Z,464.00
2019-03-25T06:09:20.188Z,492.00
2019-03-25T06:10:21.813Z,484.00
2019-03-25T06:11:22.272Z,516.00
2019-03-25T06:12:22.775Z,552.00
2019-03-25T06:13:23.250Z,608.00
2019-03-25T06:15:39.837Z,984.00
2019-03-25T06:16:40.386Z,764.00
2019-03-25T06:17:40.838Z,760.00
2019-03-25T06:18:41.308Z,1068.00
2019-03-25T06:19:41.748Z,1252.00
2019-03-25T06:20:42.253Z,1812.00
2019-03-25T06:21:42.712Z,3000.00
2019-03-25T06:22:44.248Z,2032.00
2019-03-25T06:23:44.693Z,1520.00
2019-03-25T06:24:45.246Z,1484.00
2019-03-25T06:25:45.705Z,1008.00
2019-03-25T06:26:46.184Z,1440.00
2019-03-25T06:27:46.655Z,932.00
2019-03-25T06:28:49.172Z,1344.00
2019-03-25T06:29:49.610Z,1504.00
2019-03-25T06:30:50.201Z,1516.00
2019-03-25T06:31:50.669Z,1656.00
2019-03-25T06:33:11.549Z,1800.00
2019-03-25T06:34:06.408Z,2008.00
2019-03-25T06:35:23.416Z,1712.00
2019-03-25T06:36:23.859Z,1744.00
2019-03-25T06:37:24.487Z,3440.00
2019-03-25T06:38:24.932Z,4028.00
2019-03-25T06:39:26.403Z,2276.00
2019-03-25T06:40:26.848Z,1640.00
2019-03-25T06:41:27.406Z,1472.00
2019-03-25T06:42:27.877Z,1252.00
2019-03-25T06:43:29.395Z,1344.00
2019-03-25T06:44:29.856Z,992.00
2019-03-25T06:45:31.366Z,1188.00
2019-03-25T06:46:31.827Z,1100.00
2019-03-25T06:47:33.356Z,1712.00
2019-03-25T06:48:33.806Z,2580.00
2019-03-25T06:49:34.356Z,2804.00
2019-03-25T06:50:34.812Z,2852.00
2019-03-25T06:51:35.291Z,3084.00
2019-03-25T06:52:35.755Z,2704.00
2019-03-25T06:53:36.232Z,1428.00
2019-03-25T06:54:36.697Z,1432.00
2019-03-25T06:55:37.166Z,940.00
2019-03-25T06:56:37.622Z,924.00
2019-03-25T06:57:45.918Z,1164.00
2019-03-25T06:58:46.376Z,1976.00
2019-03-25T06:59:47.840Z,2440.00
2019-03-25T07:00:48.285Z,2300.00
2019-03-25T07:01:49.801Z,1916.00
2019-03-25T07:02:50.267Z,1612.00
2019-03-25T07:03:51.759Z,1252.00
2019-03-25T07:04:52.299Z,1012.00
2019-03-25T07:05:52.839Z,1012.00
2019-03-25T07:06:53.282Z,920.00
2019-03-25T07:07:54.117Z,916.00
2019-03-25T07:08:54.616Z,1040.00
2019-03-25T07:09:55.059Z,1232.00
2019-03-25T07:10:55.667Z,1320.00
2019-03-25T07:11:56.137Z,1368.00
2019-03-25T07:12:56.726Z,1132.00
2019-03-25T07:13:57.177Z,1044.00
2019-03-25T07:14:57.615Z,972.00
2019-03-25T07:15:58.145Z,1132.00
2019-03-25T07:16:58.609Z,1424.00
2019-03-25T07:18:00.139Z,1584.00
2019-03-25T07:19:00.890Z,2076.00
2019-03-25T07:20:01.336Z,2272.00
2019-03-25T07:21:01.771Z,2628.00
2019-03-25T07:22:02.218Z,4096.00
2019-03-25T07:23:02.743Z,6088.00
2019-03-25T07:24:03.266Z,4724.00
2019-03-25T07:25:03.911Z,3416.00
2019-03-25T07:26:04.351Z,1824.00
2019-03-25T07:27:04.799Z,1600.00
2019-03-25T07:28:05.258Z,1464.00
2019-03-25T07:29:05.719Z,3444.00
2019-03-25T07:30:06.232Z,6736.00
2019-03-25T07:31:06.685Z,4600.00
2019-03-25T07:32:09.002Z,3116.00
2019-03-25T07:33:09.589Z,3764.00
2019-03-25T07:34:10.208Z,5208.00
2019-03-25T07:35:10.656Z,4916.00
2019-03-25T07:36:11.239Z,3740.00
2019-03-25T07:37:11.680Z,3476.00
2019-03-25T07:38:12.317Z,3524.00
2019-03-25T07:39:12.762Z,2856.00
2019-03-25T07:40:13.441Z,2432.00
2019-03-25T07:41:13.897Z,1896.00
2019-03-25T07:42:14.508Z,1420.00
2019-03-25T07:43:14.984Z,1232.00
2019-03-25T07:44:15.611Z,1168.00
2019-03-25T07:45:16.056Z,1608.00
2019-03-25T07:46:17.694Z,1692.00
2019-03-25T07:47:18.180Z,1984.00
2019-03-25T07:48:18.802Z,2960.00
2019-03-25T07:49:19.244Z,2880.00
2019-03-25T07:50:19.853Z,2764.00
2019-03-25T07:51:20.300Z,3336.00
2019-03-25T07:52:22.973Z,2824.00
2019-03-25T07:53:23.416Z,2756.00
2019-03-25T07:54:26.014Z,3744.00
2019-03-25T07:55:26.455Z,3428.00
2019-03-25T07:56:27.058Z,2092.00
2019-03-25T07:57:27.537Z,1192.00
2019-03-25T07:58:28.091Z,756.00
2019-03-25T07:59:28.532Z,664.00
2019-03-25T08:00:29.443Z,1072.00
2019-03-25T08:01:29.923Z,1528.00
2019-03-25T08:02:30.514Z,1976.00
2019-03-25T08:03:31.011Z,2648.00
2019-03-25T08:04:31.557Z,2048.00
2019-03-25T08:05:32.028Z,1340.00
2019-03-25T08:06:32.675Z,1016.00
2019-03-25T08:07:33.304Z,1356.00
2019-03-25T08:08:35.219Z,1092.00
2019-03-25T08:09:35.659Z,896.00
2019-03-25T08:10:36.274Z,720.00
2019-03-25T08:11:36.761Z,536.00
2019-03-25T08:12:37.471Z,584.00
2019-03-25T08:13:37.930Z,600.00
2019-03-25T08:14:38.555Z,684.00
2019-03-25T08:15:39.022Z,756.00
2019-03-25T08:16:39.677Z,1008.00
2019-03-25T08:17:40.138Z,1232.00
2019-03-25T08:18:48.496Z,1936.00
2019-03-25T08:19:48.937Z,1652.00
2019-03-25T08:20:49.433Z,1768.00
2019-03-25T08:21:50.009Z,2100.00
2019-03-25T08:22:50.902Z,3204.00
2019-03-25T08:23:51.351Z,2312.00
2019-03-25T08:24:52.962Z,2176.00
2019-03-25T08:25:53.433Z,2120.00
2019-03-25T08:26:54.095Z,1028.00
2019-03-25T08:28:00.030Z,1432.00
2019-03-25T08:29:00.991Z,3256.00
2019-03-25T08:30:01.496Z,8592.00
2019-03-25T08:31:01.933Z,9824.00
2019-03-25T08:32:03.548Z,6644.00
2019-03-25T08:33:04.000Z,2956.00
2019-03-25T08:34:05.619Z,5144.00
2019-03-25T08:35:06.084Z,7912.00
2019-03-25T08:36:06.740Z,5308.00
2019-03-25T08:37:07.213Z,3012.00
2019-03-25T08:38:07.715Z,2080.00
2019-03-25T08:39:08.179Z,4304.00
2019-03-25T08:40:08.615Z,7060.00
2019-03-25T08:41:10.141Z,9136.00
2019-03-25T08:42:10.597Z,5984.00
2019-03-25T08:43:11.107Z,7896.00
2019-03-25T08:44:11.555Z,6860.00
2019-03-25T08:45:12.104Z,10452.00
2019-03-25T08:46:12.568Z,9816.00
2019-03-25T08:47:13.022Z,6764.00
2019-03-25T08:48:13.505Z,7744.00
2019-03-25T08:49:14.074Z,5068.00
2019-03-25T08:50:14.544Z,3672.00
2019-03-25T08:51:15.001Z,4048.00
2019-03-25T08:52:15.627Z,9200.00
2019-03-25T08:53:16.082Z,4068.00
2019-03-25T08:54:16.676Z,5172.00
2019-03-25T08:55:17.116Z,5492.00
2019-03-25T08:56:17.730Z,7336.00
2019-03-25T08:57:18.176Z,7372.00
2019-03-25T08:58:18.694Z,8464.00
2019-03-25T08:59:19.132Z,5336.00
2019-03-25T09:00:19.573Z,3668.00
2019-03-25T09:01:20.020Z,5688.00
2019-03-25T09:02:20.524Z,4932.00
2019-03-25T09:03:20.959Z,4464.00
2019-03-25T09:04:21.398Z,8864.00
2019-03-25T09:05:21.837Z,8172.00
2019-03-25T09:06:22.405Z,6680.00
2019-03-25T09:07:22.848Z,7748.00
2019-03-25T09:08:23.368Z,4108.00
2019-03-25T09:09:23.809Z,5832.00
2019-03-25T09:10:25.301Z,6168.00
2019-03-25T09:11:25.790Z,4676.00
2019-03-25T09:12:26.339Z,6272.00
2019-03-25T09:13:26.822Z,6660.00
2019-03-25T09:14:27.371Z,6116.00
2019-03-25T09:15:27.812Z,5508.00
2019-03-25T09:16:28.315Z,4504.00
2019-03-25T09:17:28.755Z,6008.00
2019-03-25T09:18:29.283Z,7016.00
2019-03-25T09:19:29.719Z,6908.00
2019-03-25T09:20:30.287Z,8900.00
2019-03-25T09:21:30.750Z,6300.00
2019-03-25T09:22:31.202Z,6580.00
2019-03-25T09:23:31.775Z,4488.00
2019-03-25T09:24:33.114Z,3528.00
2019-03-25T09:25:33.695Z,6876.00
2019-03-25T09:26:34.140Z,8332.00
2019-03-25T09:27:34.878Z,9696.00
2019-03-25T09:28:35.321Z,11496.00
2019-03-25T09:29:36.797Z,11476.00
2019-03-25T09:30:37.248Z,10268.00
2019-03-25T09:31:38.753Z,8308.00
2019-03-25T09:32:39.235Z,5104.00
2019-03-25T09:33:39.791Z,4128.00
2019-03-25T09:34:40.313Z,3764.00
2019-03-25T09:35:40.773Z,3320.00
2019-03-25T09:36:41.345Z,4488.00
2019-03-25T09:37:41.812Z,5108.00
2019-03-25T09:38:43.307Z,4300.00
2019-03-25T09:39:43.742Z,6904.00
2019-03-25T09:40:44.247Z,5872.00
2019-03-25T09:41:44.694Z,4684.00
2019-03-25T09:42:49.444Z,4084.00
2019-03-25T09:43:49.896Z,6460.00
2019-03-25T09:44:53.485Z,10424.00
2019-03-25T09:45:53.920Z,9868.00
2019-03-25T09:46:54.421Z,13732.00
2019-03-25T09:47:54.900Z,6248.00
2019-03-25T09:48:56.482Z,6724.00
2019-03-25T09:49:56.928Z,4940.00
2019-03-25T09:51:18.510Z,3036.00
2019-03-25T09:52:18.959Z,1724.00
2019-03-25T09:53:21.545Z,1316.00
2019-03-25T09:54:21.994Z,724.00
2019-03-25T09:55:23.561Z,672.00
2019-03-25T09:56:24.860Z,608.00
2019-03-25T09:57:27.364Z,796.00
2019-03-25T09:58:36.084Z,1116.00
2019-03-25T09:59:34.238Z,1172.00
2019-03-25T10:00:34.754Z,1060.00
2019-03-25T10:01:35.194Z,1368.00
2019-03-25T10:02:35.825Z,1512.00
2019-03-25T10:03:36.308Z,1632.00
2019-03-25T10:04:36.862Z,1836.00
2019-03-25T10:05:37.298Z,3508.00
2019-03-25T10:06:38.954Z,6032.00
2019-03-25T10:07:39.441Z,6276.00
2019-03-25T10:08:39.897Z,5200.00
2019-03-25T10:09:40.351Z,5656.00
2019-03-25T10:10:40.816Z,5992.00
2019-03-25T10:11:41.272Z,6216.00
2019-03-25T10:12:41.729Z,6216.00
2019-03-25T10:13:42.200Z,6476.00
2019-03-25T10:14:42.638Z,6364.00
2019-03-25T10:15:43.095Z,6356.00
2019-03-25T10:16:43.551Z,6452.00
2019-03-25T10:17:44.027Z,7316.00
2019-03-25T10:18:44.459Z,6980.00
2019-03-25T10:19:44.903Z,6508.00
2019-03-25T10:20:45.348Z,6432.00
2019-03-25T10:21:45.797Z,6428.00
2019-03-25T10:22:46.277Z,7036.00
2019-03-25T10:23:46.750Z,3220.00
2019-03-25T10:24:47.217Z,8712.00
2019-03-25T10:25:47.678Z,8748.00
2019-03-25T10:26:48.123Z,3760.00
2019-03-25T10:27:48.586Z,7060.00
2019-03-25T10:28:49.351Z,4744.00
2019-03-25T10:29:49.878Z,7736.00
2019-03-25T10:30:50.323Z,15044.00
2019-03-25T10:31:50.789Z,9048.00
2019-03-25T10:32:54.520Z,4516.00
2019-03-25T10:33:54.980Z,3464.00
2019-03-25T10:34:55.423Z,3840.00
2019-03-25T10:35:55.863Z,5352.00
2019-03-25T10:36:56.308Z,9604.00
2019-03-25T10:37:58.959Z,3644.00
2019-03-25T10:38:59.393Z,6504.00
2019-03-25T10:39:59.847Z,6480.00
2019-03-25T10:41:00.294Z,6328.00
2019-03-25T10:42:00.736Z,6460.00
2019-03-25T10:43:01.352Z,7124.00
2019-03-25T10:44:01.802Z,7080.00
2019-03-25T10:45:09.023Z,7172.00
2019-03-25T10:46:09.489Z,7536.00
2019-03-25T10:47:10.054Z,6580.00
2019-03-25T10:48:10.512Z,7996.00
2019-03-25T10:49:11.072Z,7160.00
2019-03-25T10:50:11.510Z,7760.00
2019-03-25T10:51:12.274Z,7672.00
2019-03-25T10:52:12.728Z,7136.00
2019-03-25T10:53:13.391Z,6824.00
2019-03-25T10:54:13.828Z,6628.00
2019-03-25T10:55:30.045Z,6604.00
2019-03-25T10:56:30.564Z,6800.00
2019-03-25T10:57:31.179Z,7080.00
2019-03-25T10:58:31.662Z,7120.00
2019-03-25T10:59:32.216Z,7064.00
2019-03-25T11:00:32.657Z,8192.00
2019-03-25T11:01:33.319Z,13292.00
2019-03-25T11:02:33.767Z,13500.00
2019-03-25T11:03:35.358Z,7972.00
2019-03-25T11:04:35.793Z,7908.00
2019-03-25T11:05:36.263Z,8296.00
2019-03-25T11:06:36.713Z,8096.00
2019-03-25T11:07:38.292Z,8164.00
2019-03-25T11:08:38.863Z,9212.00
2019-03-25T11:09:39.364Z,9812.00
2019-03-25T11:10:39.823Z,9800.00
2019-03-25T11:11:41.413Z,10856.00
2019-03-25T11:12:41.881Z,12168.00
2019-03-25T11:13:43.504Z,12836.00
2019-03-25T11:14:43.953Z,16064.00
2019-03-25T11:15:44.513Z,19904.00
2019-03-25T11:16:44.956Z,11552.00
2019-03-25T11:17:45.558Z,3484.00
2019-03-25T11:18:46.011Z,2260.00
2019-03-25T11:19:46.493Z,2080.00
2019-03-25T11:20:46.933Z,3044.00
2019-03-25T11:21:47.517Z,3752.00
2019-03-25T11:22:47.961Z,3796.00
2019-03-25T11:23:48.484Z,3844.00
2019-03-25T11:24:48.922Z,3712.00
2019-03-25T11:25:49.505Z,3680.00
2019-03-25T11:26:49.956Z,3672.00
2019-03-25T11:27:54.467Z,4200.00
2019-03-25T11:28:55.280Z,32256.00
2019-03-25T11:29:55.740Z,52128.00
2019-03-25T11:30:56.189Z,23136.00
2019-03-25T11:31:57.829Z,36864.00
2019-03-25T11:32:58.306Z,60896.00
2019-03-25T11:33:58.966Z,62112.00
2019-03-25T11:34:59.402Z,62464.00
2019-03-25T11:36:00.005Z,39680.00
2019-03-25T11:37:00.448Z,20448.00
2019-03-25T11:38:01.074Z,6060.00
2019-03-25T11:39:01.510Z,3836.00
2019-03-25T11:40:02.489Z,3068.00
2019-03-25T11:41:02.935Z,2716.00
2019-03-25T11:42:03.523Z,3896.00
2019-03-25T11:43:03.981Z,4304.00
2019-03-25T11:44:05.593Z,3552.00
2019-03-25T11:45:06.031Z,2408.00
2019-03-25T11:46:06.626Z,1780.00
2019-03-25T11:47:07.081Z,1772.00
2019-03-25T11:48:07.713Z,1948.00
2019-03-25T11:49:08.168Z,2748.00
2019-03-25T11:50:08.806Z,2856.00
2019-03-25T11:51:09.264Z,2952.00
2019-03-25T11:52:09.717Z,3256.00
2019-03-25T11:53:10.178Z,6288.00
2019-03-25T11:54:10.616Z,26560.00
2019-03-25T11:55:11.072Z,9084.00
2019-03-25T11:56:11.529Z,8688.00
2019-03-25T11:57:12.075Z,9344.00
2019-03-25T11:58:12.535Z,5868.00
2019-03-25T11:59:18.513Z,5564.00
2019-03-25T12:00:19.520Z,6176.00
2019-03-25T12:01:19.979Z,9088.00
2019-03-25T12:02:20.445Z,6092.00
2019-03-25T12:03:20.941Z,11896.00
2019-03-25T12:04:21.409Z,16672.00
2019-03-25T12:05:21.861Z,12992.00
2019-03-25T12:06:22.314Z,8900.00
2019-03-25T12:07:22.759Z,8504.00
2019-03-25T12:08:23.251Z,42336.00
2019-03-25T12:09:23.709Z,59968.00
2019-03-25T12:10:24.512Z,59264.00
2019-03-25T12:11:24.951Z,8284.00
2019-03-25T12:12:25.401Z,38208.00
2019-03-25T12:13:25.862Z,20832.00
2019-03-25T12:14:28.479Z,8408.00
2019-03-25T12:15:28.926Z,5228.00
2019-03-25T12:16:31.437Z,9928.00
2019-03-25T12:17:31.999Z,8208.00
2019-03-25T12:18:32.464Z,15648.00
2019-03-25T12:19:32.986Z,11428.00
2019-03-25T12:20:33.430Z,8880.00
2019-03-25T12:21:33.866Z,11708.00
2019-03-25T12:22:34.333Z,15712.00
2019-03-25T12:23:34.923Z,14788.00
2019-03-25T12:24:35.366Z,12952.00
2019-03-25T12:25:35.798Z,11272.00
2019-03-25T12:26:36.244Z,12184.00
2019-03-25T12:27:36.721Z,14412.00
2019-03-25T12:28:39.300Z,10680.00
2019-03-25T12:29:39.755Z,9072.00
2019-03-25T12:30:40.308Z,14468.00
2019-03-25T12:31:40.744Z,8920.00
2019-03-25T12:32:42.264Z,9216.00
2019-03-25T12:33:42.762Z,5392.00
2019-03-25T12:34:45.250Z,4036.00
2019-03-25T12:35:45.687Z,4992.00
2019-03-25T12:36:48.236Z,6224.00
2019-03-25T12:37:48.679Z,5604.00
2019-03-25T12:38:57.903Z,4284.00
2019-03-25T12:39:58.344Z,3848.00
2019-03-25T12:40:59.945Z,5080.00
2019-03-25T12:42:05.363Z,7352.00
2019-03-25T12:43:07.876Z,6396.00
2019-03-25T12:44:08.326Z,4984.00
2019-03-25T12:48:37.836Z,3600.00
2019-03-25T12:49:38.275Z,2428.00
2019-03-25T12:55:06.675Z,1812.00
2019-03-25T12:56:07.114Z,2884.00
2019-03-25T13:01:52.850Z,18400.00
2019-03-25T13:02:50.863Z,10352.00
2019-03-25T13:03:59.000Z,8408.00
2019-03-25T13:04:59.454Z,6756.00